createdAt,value
2023-05-01T00:00:14.980Z,3.94
2023-05-01T00:01:14.959Z,4.05
2023-05-01T00:02:14.961Z,4.05
2023-05-01T00:03:14.998Z,4.08
2023-05-01T00:04:15.191Z,4.11
2023-05-01T00:05:14.899Z,4.14
2023-05-01T00:06:14.923Z,4.20
2023-05-01T00:07:14.857Z,4.23
2023-05-01T00:08:14.852Z,4.24
2023-05-01T00:09:14.844Z,4.26
2023-05-01T00:10:14.843Z,4.24
2023-05-01T00:11:14.839Z,4.22
2023-05-01T00:12:14.805Z,4.15
2023-05-01T00:13:14.783Z,4.14
2023-05-01T00:14:14.789Z,4.16
2023-05-01T00:15:14.761Z,4.14
2023-05-01T00:16:14.805Z,4.14
2023-05-01T00:17:14.738Z,4.11
2023-05-01T00:18:14.801Z,4.11
2023-05-01T00:19:14.700Z,4.08
2023-05-01T00:20:14.705Z,4.14
2023-05-01T00:21:14.739Z,4.11
2023-05-01T00:22:14.683Z,4.11
2023-05-01T00:23:14.657Z,4.06
2023-05-01T00:24:14.649Z,3.97
2023-05-01T00:25:14.635Z,3.93
2023-05-01T00:26:14.627Z,3.90
2023-05-01T00:27:21.605Z,3.88
2023-05-01T00:28:14.595Z,3.88
2023-05-01T00:29:14.592Z,3.84
2023-05-01T00:30:14.573Z,3.79
2023-05-01T00:31:14.596Z,3.76
2023-05-01T00:32:14.562Z,3.70
2023-05-01T00:33:14.534Z,3.70
2023-05-01T00:34:14.529Z,3.61
2023-05-01T00:35:14.517Z,3.57
2023-05-01T00:36:14.510Z,3.58
2023-05-01T00:37:14.485Z,3.54
2023-05-01T00:38:14.471Z,3.48
2023-05-01T00:39:14.459Z,3.39
2023-05-01T00:40:14.450Z,3.39
2023-05-01T00:41:14.450Z,3.40
2023-05-01T00:42:14.417Z,3.42
2023-05-01T00:43:14.414Z,3.36
2023-05-01T00:44:14.400Z,3.35
2023-05-01T00:45:14.380Z,3.26
2023-05-01T00:46:14.416Z,3.23
2023-05-01T00:47:14.351Z,3.23
2023-05-01T00:48:14.345Z,3.31
2023-05-01T00:49:14.333Z,3.29
2023-05-01T00:50:14.334Z,3.29
2023-05-01T00:51:14.315Z,3.28
2023-05-01T00:52:14.308Z,3.26
2023-05-01T00:53:14.285Z,3.26
2023-05-01T00:54:14.279Z,3.24
2023-05-01T00:55:14.252Z,3.17
2023-05-01T00:56:14.266Z,3.15
2023-05-01T00:57:14.237Z,3.14
2023-05-01T00:58:21.740Z,3.14
2023-05-01T00:59:14.218Z,3.13
2023-05-01T01:00:14.212Z,3.13
2023-05-01T01:01:14.273Z,3.06
2023-05-01T01:02:14.201Z,3.05
2023-05-01T01:03:14.160Z,2.99
2023-05-01T01:04:14.235Z,2.97
2023-05-01T01:05:14.144Z,2.92
2023-05-01T01:06:14.201Z,2.87
2023-05-01T01:07:14.106Z,2.85
2023-05-01T01:08:14.094Z,2.84
2023-05-01T01:09:14.077Z,2.84
2023-05-01T01:10:14.073Z,2.93
2023-05-01T01:11:14.071Z,2.96
2023-05-01T01:12:14.042Z,2.99
2023-05-01T01:13:14.024Z,2.97
2023-05-01T01:14:14.012Z,3.00
2023-05-01T01:15:14.002Z,2.99
2023-05-01T01:16:14.067Z,3.02
2023-05-01T01:17:14.125Z,3.00
2023-05-01T01:18:14.131Z,3.00
2023-05-01T01:19:13.969Z,2.97
2023-05-01T01:20:13.948Z,2.93
2023-05-01T01:21:13.962Z,2.97
2023-05-01T01:22:13.911Z,3.00
2023-05-01T01:23:13.918Z,2.99
2023-05-01T01:24:13.892Z,3.02
2023-05-01T01:25:13.873Z,3.02
2023-05-01T01:26:13.872Z,3.00
2023-05-01T01:27:13.846Z,3.02
2023-05-01T01:28:13.839Z,3.03
2023-05-01T01:29:13.829Z,3.02
2023-05-01T01:30:13.813Z,2.99
2023-05-01T01:31:13.844Z,2.96
2023-05-01T01:32:13.789Z,2.92
2023-05-01T01:33:13.776Z,2.84
2023-05-01T01:34:13.778Z,2.81
2023-05-01T01:35:13.765Z,2.81
2023-05-01T01:36:13.752Z,2.85
2023-05-01T01:37:13.726Z,2.89
2023-05-01T01:38:13.708Z,2.92
2023-05-01T01:39:13.686Z,2.93
2023-05-01T01:40:13.678Z,2.95
2023-05-01T01:41:13.690Z,2.93
2023-05-01T01:42:13.679Z,2.92
2023-05-01T01:43:13.651Z,2.89
2023-05-01T01:44:13.625Z,2.85
2023-05-01T01:45:13.619Z,2.82
2023-05-01T01:46:13.648Z,2.78
2023-05-01T01:47:13.590Z,2.75
2023-05-01T01:48:13.590Z,2.71
2023-05-01T01:49:13.568Z,2.66
2023-05-01T01:50:13.586Z,2.71
2023-05-01T01:51:13.558Z,2.77
2023-05-01T01:52:13.544Z,2.75
2023-05-01T01:53:13.516Z,2.74
2023-05-01T01:54:13.514Z,2.75
2023-05-01T01:55:13.482Z,2.78
2023-05-01T01:56:13.494Z,2.77
2023-05-01T01:57:13.454Z,2.74
2023-05-01T01:58:13.470Z,2.72
2023-05-01T01:59:13.437Z,2.71
2023-05-01T02:00:13.431Z,2.63
2023-05-01T02:01:13.448Z,2.74
2023-05-01T02:02:13.617Z,2.72
2023-05-01T02:03:13.436Z,2.71
2023-05-01T02:04:13.557Z,2.69
2023-05-01T02:05:13.350Z,2.67
2023-05-01T02:06:13.440Z,2.63
2023-05-01T02:07:13.331Z,2.63
2023-05-01T02:08:13.341Z,2.64
2023-05-01T02:09:13.309Z,2.67
2023-05-01T02:10:13.322Z,2.66
2023-05-01T02:11:13.304Z,2.64
2023-05-01T02:12:13.308Z,2.59
2023-05-01T02:13:13.280Z,2.56
2023-05-01T02:14:13.254Z,2.54
2023-05-01T02:15:13.235Z,2.53
2023-05-01T02:16:13.363Z,2.48
2023-05-01T02:17:13.205Z,2.52
2023-05-01T02:18:13.196Z,2.54
2023-05-01T02:19:13.178Z,2.54
2023-05-01T02:20:13.175Z,2.49
2023-05-01T02:21:13.170Z,2.52
2023-05-01T02:22:13.153Z,2.49
2023-05-01T02:23:13.140Z,2.46
2023-05-01T02:24:13.123Z,2.56
2023-05-01T02:25:13.107Z,2.61
2023-05-01T02:26:13.110Z,2.61
2023-05-01T02:27:13.075Z,2.57
2023-05-01T02:28:13.065Z,2.59
2023-05-01T02:29:13.046Z,2.54
2023-05-01T02:30:13.035Z,2.49
2023-05-01T02:31:13.075Z,2.54
2023-05-01T02:32:13.026Z,2.53
2023-05-01T02:33:13.020Z,2.48
2023-05-01T02:34:13.004Z,2.53
2023-05-01T02:35:12.972Z,2.53
2023-05-01T02:36:13.033Z,2.53
2023-05-01T02:37:12.950Z,2.54
2023-05-01T02:38:13.094Z,2.53
2023-05-01T02:39:12.919Z,2.49
2023-05-01T02:40:12.915Z,2.53
2023-05-01T02:41:12.920Z,2.49
2023-05-01T02:42:12.901Z,2.46
2023-05-01T02:43:12.879Z,2.48
2023-05-01T02:44:12.869Z,2.52
2023-05-01T02:45:12.846Z,2.46
2023-05-01T02:46:12.878Z,2.43
2023-05-01T02:47:12.852Z,2.39
2023-05-01T02:48:12.873Z,2.39
2023-05-01T02:49:12.825Z,2.39
2023-05-01T02:50:12.793Z,2.36
2023-05-01T02:51:12.788Z,2.41
2023-05-01T02:52:12.784Z,2.38
2023-05-01T02:53:12.752Z,2.39
2023-05-01T02:54:12.801Z,2.38
2023-05-01T02:55:12.710Z,2.48
2023-05-01T02:56:12.906Z,2.46
2023-05-01T02:57:12.700Z,2.46
2023-05-01T02:58:12.686Z,2.41
2023-05-01T02:59:12.676Z,2.36
2023-05-01T03:00:12.679Z,2.35
2023-05-01T03:01:12.687Z,2.30
2023-05-01T03:02:12.655Z,2.27
2023-05-01T03:03:12.649Z,2.21
2023-05-01T03:04:12.728Z,2.21
2023-05-01T03:05:12.594Z,2.21
2023-05-01T03:06:12.626Z,2.21
2023-05-01T03:07:12.593Z,2.18
2023-05-01T03:08:12.574Z,2.23
2023-05-01T03:09:12.548Z,2.25
2023-05-01T03:10:12.564Z,2.25
2023-05-01T03:11:12.540Z,2.24
2023-05-01T03:12:12.516Z,2.21
2023-05-01T03:13:12.498Z,2.18
2023-05-01T03:14:12.490Z,2.10
2023-05-01T03:15:12.489Z,2.10
2023-05-01T03:16:12.517Z,2.06
2023-05-01T03:17:12.458Z,2.03
2023-05-01T03:18:12.446Z,1.99
2023-05-01T03:19:12.408Z,1.91
2023-05-01T03:20:12.396Z,1.88
2023-05-01T03:21:12.399Z,1.87
2023-05-01T03:22:12.371Z,1.81
2023-05-01T03:23:12.355Z,1.81
2023-05-01T03:24:12.349Z,1.76
2023-05-01T03:25:12.353Z,1.73
2023-05-01T03:26:12.344Z,1.72
2023-05-01T03:27:12.316Z,1.80
2023-05-01T03:28:12.313Z,1.86
2023-05-01T03:29:12.284Z,1.90
2023-05-01T03:30:12.273Z,1.93
2023-05-01T03:31:12.279Z,1.93
2023-05-01T03:32:12.305Z,1.93
2023-05-01T03:33:12.274Z,1.98
2023-05-01T03:34:12.204Z,1.95
2023-05-01T03:35:12.237Z,1.95
2023-05-01T03:36:12.211Z,1.98
2023-05-01T03:37:12.190Z,2.06
2023-05-01T03:38:12.152Z,2.03
2023-05-01T03:39:12.149Z,2.02
2023-05-01T03:40:12.135Z,2.00
2023-05-01T03:41:12.162Z,1.99
2023-05-01T03:42:12.132Z,1.99
2023-05-01T03:43:12.142Z,1.95
2023-05-01T03:44:12.109Z,1.95
2023-05-01T03:45:12.100Z,1.98
2023-05-01T03:46:12.146Z,2.07
2023-05-01T03:47:12.052Z,2.10
2023-05-01T03:48:12.068Z,2.10
2023-05-01T03:49:12.025Z,2.14
2023-05-01T03:50:11.997Z,2.10
2023-05-01T03:51:12.019Z,2.10
2023-05-01T03:52:12.007Z,2.07
2023-05-01T03:53:11.973Z,2.09
2023-05-01T03:54:11.955Z,2.12
2023-05-01T03:55:11.964Z,2.10
2023-05-01T03:56:11.969Z,2.12
2023-05-01T03:57:11.926Z,2.10
2023-05-01T03:58:11.917Z,2.09
2023-05-01T03:59:11.901Z,2.07
2023-05-01T04:00:11.897Z,2.07
2023-05-01T04:01:11.888Z,2.09
2023-05-01T04:02:11.876Z,2.07
2023-05-01T04:03:11.930Z,2.10
2023-05-01T04:04:12.012Z,2.10
2023-05-01T04:05:11.837Z,2.10
2023-05-01T04:06:11.872Z,2.10
2023-05-01T04:07:11.800Z,2.06
2023-05-01T04:08:11.777Z,2.03
2023-05-01T04:09:11.774Z,2.05
2023-05-01T04:10:11.756Z,2.03
2023-05-01T04:11:11.763Z,2.10
2023-05-01T04:12:11.729Z,2.16
2023-05-01T04:13:11.717Z,2.17
2023-05-01T04:14:11.698Z,2.21
2023-05-01T04:15:12.735Z,2.30
2023-05-01T04:16:11.728Z,2.34
2023-05-01T04:17:11.671Z,2.38
2023-05-01T04:18:11.726Z,2.36
2023-05-01T04:19:11.657Z,2.43
2023-05-01T04:20:11.630Z,2.46
2023-05-01T04:21:11.637Z,2.52
2023-05-01T04:22:11.613Z,2.54
2023-05-01T04:23:11.606Z,2.54
2023-05-01T04:24:11.573Z,2.61
2023-05-01T04:25:11.560Z,2.66
2023-05-01T04:26:11.557Z,2.69
2023-05-01T04:27:11.534Z,2.69
2023-05-01T04:28:11.521Z,2.81
2023-05-01T04:29:11.515Z,2.89
2023-05-01T04:30:11.504Z,2.92
2023-05-01T04:31:11.581Z,2.97
2023-05-01T04:32:11.467Z,3.02
2023-05-01T04:33:11.617Z,3.10
2023-05-01T04:34:11.435Z,3.14
2023-05-01T04:35:11.476Z,3.17
2023-05-01T04:36:11.435Z,3.24
2023-05-01T04:37:11.413Z,3.29
2023-05-01T04:38:11.384Z,3.36
2023-05-01T04:39:11.386Z,3.35
2023-05-01T04:40:11.772Z,3.48
2023-05-01T04:41:11.370Z,3.51
2023-05-01T04:42:11.338Z,3.55
2023-05-01T04:43:11.344Z,3.60
2023-05-01T04:44:11.315Z,3.66
2023-05-01T04:45:11.315Z,3.68
2023-05-01T04:46:11.334Z,3.79
2023-05-01T04:47:11.519Z,3.80
2023-05-01T04:48:11.328Z,3.87
2023-05-01T04:49:11.257Z,3.88
2023-05-01T04:50:11.236Z,3.93
2023-05-01T04:51:11.242Z,3.98
2023-05-01T04:52:11.220Z,4.04
2023-05-01T04:53:11.198Z,4.05
2023-05-01T04:54:11.181Z,4.09
2023-05-01T04:55:11.181Z,4.14
2023-05-01T04:56:11.175Z,4.18
2023-05-01T04:57:11.152Z,4.26
2023-05-01T04:58:11.124Z,4.32
2023-05-01T04:59:11.133Z,4.36
2023-05-01T05:00:11.105Z,4.45
2023-05-01T05:01:11.158Z,4.51
2023-05-01T05:02:11.091Z,4.59
2023-05-01T05:03:11.121Z,4.62
2023-05-01T05:04:11.115Z,4.67
2023-05-01T05:05:11.065Z,4.72
2023-05-01T05:06:11.375Z,4.73
2023-05-01T05:07:11.030Z,4.78
2023-05-01T05:08:11.018Z,4.80
2023-05-01T05:09:11.002Z,4.82
2023-05-01T05:10:10.987Z,4.82
2023-05-01T05:11:11.003Z,4.86
2023-05-01T05:12:10.970Z,4.91
2023-05-01T05:13:10.948Z,4.94
2023-05-01T05:14:10.946Z,4.99
2023-05-01T05:15:10.935Z,5.03
2023-05-01T05:16:10.940Z,5.04
2023-05-01T05:17:10.910Z,5.20
2023-05-01T05:18:10.966Z,5.24
2023-05-01T05:19:10.867Z,5.28
2023-05-01T05:20:10.873Z,5.38
2023-05-01T05:21:10.884Z,5.42
2023-05-01T05:22:10.840Z,5.49
2023-05-01T05:23:10.832Z,5.56
2023-05-01T05:24:10.811Z,5.58
2023-05-01T05:25:10.814Z,5.57
2023-05-01T05:26:10.794Z,5.61
2023-05-01T05:27:10.775Z,5.67
2023-05-01T05:28:10.746Z,5.74
2023-05-01T05:29:10.748Z,5.79
2023-05-01T05:30:10.733Z,5.78
2023-05-01T05:31:10.724Z,5.82
2023-05-01T05:32:10.756Z,5.89
2023-05-01T05:33:10.762Z,5.94
2023-05-01T05:34:10.677Z,5.99
2023-05-01T05:35:10.677Z,5.99
2023-05-01T05:36:10.676Z,6.06
2023-05-01T05:37:10.646Z,6.11
2023-05-01T05:38:10.661Z,6.09
2023-05-01T05:39:10.610Z,6.17
2023-05-01T05:40:10.589Z,6.22
2023-05-01T05:41:10.608Z,6.25
2023-05-01T05:42:10.556Z,6.33
2023-05-01T05:43:10.595Z,6.37
2023-05-01T05:44:10.536Z,6.41
2023-05-01T05:45:10.547Z,6.44
2023-05-01T05:46:10.632Z,6.52
2023-05-01T05:47:10.506Z,6.58
2023-05-01T05:48:10.521Z,6.71
2023-05-01T05:49:10.484Z,6.84
2023-05-01T05:50:10.484Z,6.91
2023-05-01T05:51:10.509Z,6.91
2023-05-01T05:52:10.436Z,6.97
2023-05-01T05:53:10.434Z,7.03
2023-05-01T05:54:10.413Z,7.15
2023-05-01T05:55:10.408Z,7.25
2023-05-01T05:56:10.433Z,7.34
2023-05-01T05:57:10.403Z,7.40
2023-05-01T05:58:10.429Z,7.49
2023-05-01T05:59:10.364Z,7.58
2023-05-01T06:00:10.346Z,7.67
2023-05-01T06:01:10.520Z,7.69
2023-05-01T06:02:10.342Z,7.77
2023-05-01T06:03:10.465Z,7.87
2023-05-01T06:04:10.293Z,7.98
2023-05-01T06:05:10.338Z,8.05
2023-05-01T06:06:10.640Z,8.19
2023-05-01T06:07:10.251Z,8.30
2023-05-01T06:08:10.225Z,8.45
2023-05-01T06:09:10.238Z,8.45
2023-05-01T06:10:10.216Z,8.61
2023-05-01T06:11:10.215Z,8.94
2023-05-01T06:12:10.201Z,9.02
2023-05-01T06:13:13.982Z,9.15
2023-05-01T06:14:10.161Z,9.28
2023-05-01T06:15:10.147Z,9.29
2023-05-01T06:16:10.209Z,9.51
2023-05-01T06:17:10.138Z,9.72
2023-05-01T06:18:10.177Z,9.93
2023-05-01T06:19:10.100Z,10.15
2023-05-01T06:20:10.078Z,10.33
2023-05-01T06:21:10.075Z,10.47
2023-05-01T06:22:10.069Z,10.48
2023-05-01T06:23:10.042Z,10.88
2023-05-01T06:24:10.041Z,11.02
2023-05-01T06:25:10.040Z,11.21
2023-05-01T06:26:09.988Z,11.40
2023-05-01T06:27:10.004Z,11.43
2023-05-01T06:28:09.989Z,11.55
2023-05-01T06:29:09.975Z,11.69
2023-05-01T06:30:09.957Z,11.78
2023-05-01T06:31:10.036Z,11.85
2023-05-01T06:32:09.936Z,11.82
2023-05-01T06:33:09.964Z,11.78
2023-05-01T06:34:09.908Z,11.79
2023-05-01T06:35:09.893Z,11.73
2023-05-01T06:36:09.855Z,11.54
2023-05-01T06:37:09.864Z,11.60
2023-05-01T06:38:09.863Z,11.62
2023-05-01T06:39:09.835Z,11.70
2023-05-01T06:40:09.868Z,11.80
2023-05-01T06:41:09.809Z,11.88
2023-05-01T06:42:09.796Z,12.04
2023-05-01T06:43:09.781Z,12.13
2023-05-01T06:44:09.751Z,12.19
2023-05-01T06:45:09.751Z,12.09
2023-05-01T06:46:09.801Z,12.14
2023-05-01T06:47:09.751Z,12.20
2023-05-01T06:48:09.778Z,12.20
2023-05-01T06:49:09.695Z,12.29
2023-05-01T06:50:09.712Z,12.31
2023-05-01T06:51:09.680Z,12.31
2023-05-01T06:52:09.687Z,12.46
2023-05-01T06:53:09.641Z,12.71
2023-05-01T06:54:09.665Z,12.79
2023-05-01T06:55:09.623Z,13.03
2023-05-01T06:56:09.602Z,13.20
2023-05-01T06:57:09.635Z,13.22
2023-05-01T06:58:22.482Z,13.49
2023-05-01T06:59:10.580Z,13.46
2023-05-01T07:00:09.551Z,13.55
2023-05-01T07:01:09.595Z,13.66
2023-05-01T07:02:09.594Z,13.71
2023-05-01T07:03:09.539Z,13.67
2023-05-01T07:04:09.500Z,13.71
2023-05-01T07:05:09.494Z,13.69
2023-05-01T07:06:09.506Z,13.54
2023-05-01T07:07:09.481Z,13.23
2023-05-01T07:08:09.448Z,13.03
2023-05-01T07:09:09.429Z,12.96
2023-05-01T07:10:09.448Z,13.08
2023-05-01T07:11:09.410Z,13.10
2023-05-01T07:12:09.403Z,13.44
2023-05-01T07:13:09.449Z,13.51
2023-05-01T07:14:09.368Z,13.62
2023-05-01T07:15:09.357Z,13.78
2023-05-01T07:16:09.343Z,13.92
2023-05-01T07:17:09.342Z,14.07
2023-05-01T07:18:09.362Z,14.12
2023-05-01T07:19:09.307Z,14.17
2023-05-01T07:20:09.284Z,14.10
2023-05-01T07:21:09.294Z,14.20
2023-05-01T07:22:09.274Z,14.12
2023-05-01T07:23:09.252Z,14.14
2023-05-01T07:24:09.227Z,14.12
2023-05-01T07:25:09.234Z,14.20
2023-05-01T07:26:09.201Z,14.22
2023-05-01T07:27:09.229Z,14.33
2023-05-01T07:28:09.200Z,14.27
2023-05-01T07:29:09.168Z,14.17
2023-05-01T07:30:09.160Z,14.17
2023-05-01T07:31:09.165Z,14.10
2023-05-01T07:32:09.196Z,14.10
2023-05-01T07:33:09.187Z,14.36
2023-05-01T07:34:09.123Z,14.45
2023-05-01T07:35:09.090Z,14.43
2023-05-01T07:36:09.083Z,14.57
2023-05-01T07:37:09.079Z,14.68
2023-05-01T07:38:09.052Z,14.65
2023-05-01T07:39:09.041Z,14.86
2023-05-01T07:40:09.023Z,14.92
2023-05-01T07:41:09.016Z,14.92
2023-05-01T07:42:09.014Z,15.01
2023-05-01T07:43:08.976Z,15.03
2023-05-01T07:44:08.970Z,15.03
2023-05-01T07:45:08.972Z,15.03
2023-05-01T07:46:08.964Z,14.96
2023-05-01T07:47:08.949Z,14.84
2023-05-01T07:48:08.965Z,14.81
2023-05-01T07:49:08.902Z,14.92
2023-05-01T07:50:08.977Z,14.92
2023-05-01T07:51:08.896Z,15.01
2023-05-01T07:52:08.882Z,14.84
2023-05-01T07:53:08.857Z,14.83
2023-05-01T07:54:08.845Z,14.81
2023-05-01T07:55:08.814Z,14.83
2023-05-01T07:56:09.085Z,14.83
2023-05-01T07:57:08.798Z,14.98
2023-05-01T07:58:08.789Z,14.96
2023-05-01T07:59:08.781Z,15.06
2023-05-01T08:00:08.768Z,15.21
2023-05-01T08:01:08.735Z,15.23
2023-05-01T08:02:08.797Z,15.36
2023-05-01T08:03:08.964Z,15.56
2023-05-01T08:04:08.757Z,15.71
2023-05-01T08:05:08.692Z,15.87
2023-05-01T08:06:08.746Z,15.90
2023-05-01T08:07:08.890Z,15.86
2023-05-01T08:08:08.658Z,16.01
2023-05-01T08:09:08.660Z,16.12
2023-05-01T08:10:08.687Z,16.25
2023-05-01T08:11:08.616Z,16.45
2023-05-01T08:12:08.645Z,16.63
2023-05-01T08:13:08.613Z,16.70
2023-05-01T08:14:08.621Z,16.78
2023-05-01T08:15:16.076Z,16.88
2023-05-01T08:16:08.616Z,16.94
2023-05-01T08:17:08.576Z,16.73
2023-05-01T08:18:08.711Z,16.57
2023-05-01T08:19:08.518Z,16.57
2023-05-01T08:20:08.513Z,16.61
2023-05-01T08:21:08.489Z,16.78
2023-05-01T08:22:08.508Z,16.91
2023-05-01T08:23:08.468Z,16.82
2023-05-01T08:24:08.467Z,16.64
2023-05-01T08:25:08.461Z,16.68
2023-05-01T08:26:08.448Z,16.70
2023-05-01T08:27:08.418Z,16.49
2023-05-01T08:28:08.403Z,16.50
2023-05-01T08:29:08.376Z,16.53
2023-05-01T08:30:08.387Z,16.53
2023-05-01T08:31:08.524Z,16.66
2023-05-01T08:32:08.390Z,16.57
2023-05-01T08:33:08.350Z,16.53
2023-05-01T08:34:08.349Z,16.50
2023-05-01T08:35:08.304Z,16.56
2023-05-01T08:36:08.294Z,16.70
2023-05-01T08:37:08.287Z,16.71
2023-05-01T08:38:08.307Z,16.83
2023-05-01T08:39:08.270Z,16.81
2023-05-01T08:40:08.272Z,16.79
2023-05-01T08:41:08.248Z,16.89
2023-05-01T08:42:08.218Z,16.83
2023-05-01T08:43:08.230Z,16.88
2023-05-01T08:44:08.186Z,16.94
2023-05-01T08:45:08.206Z,16.93
2023-05-01T08:46:08.227Z,16.91
2023-05-01T08:47:08.407Z,17.01
2023-05-01T08:48:08.159Z,16.98
2023-05-01T08:49:08.183Z,16.94
2023-05-01T08:50:08.123Z,16.94
2023-05-01T08:51:08.119Z,16.75
2023-05-01T08:52:08.158Z,16.76
2023-05-01T08:53:08.078Z,16.89
2023-05-01T08:54:08.048Z,16.94
2023-05-01T08:55:08.068Z,17.01
2023-05-01T08:56:08.043Z,16.88
2023-05-01T08:57:10.210Z,16.86
2023-05-01T08:58:08.044Z,16.82
2023-05-01T08:59:08.005Z,16.83
2023-05-01T09:00:07.999Z,16.94
2023-05-01T09:01:07.997Z,16.89
2023-05-01T09:02:08.219Z,16.88
2023-05-01T09:03:08.075Z,16.98
2023-05-01T09:04:07.963Z,17.14
2023-05-01T09:05:07.935Z,17.26
2023-05-01T09:06:07.934Z,17.36
2023-05-01T09:07:07.899Z,17.51
2023-05-01T09:08:07.904Z,17.66
2023-05-01T09:09:07.880Z,17.84
2023-05-01T09:10:07.873Z,17.79
2023-05-01T09:11:07.838Z,17.92
2023-05-01T09:12:07.847Z,17.97
2023-05-01T09:13:07.815Z,17.90
2023-05-01T09:14:07.801Z,17.89
2023-05-01T09:15:07.786Z,18.07
2023-05-01T09:16:07.784Z,18.11
2023-05-01T09:17:07.774Z,18.21
2023-05-01T09:18:07.863Z,18.18
2023-05-01T09:19:07.730Z,18.21
2023-05-01T09:20:07.759Z,18.25
2023-05-01T09:21:07.705Z,18.27
2023-05-01T09:22:07.717Z,18.26
2023-05-01T09:23:07.677Z,18.39
2023-05-01T09:24:07.676Z,18.42
2023-05-01T09:25:07.649Z,18.44
2023-05-01T09:26:07.631Z,18.45
2023-05-01T09:27:07.664Z,18.70
2023-05-01T09:28:07.636Z,18.70
2023-05-01T09:29:07.613Z,18.80
2023-05-01T09:30:07.595Z,18.88
2023-05-01T09:31:07.567Z,18.88
2023-05-01T09:32:07.610Z,18.87
2023-05-01T09:33:07.713Z,18.58
2023-05-01T09:34:07.554Z,18.58
2023-05-01T09:35:07.515Z,18.39
2023-05-01T09:36:07.508Z,18.50
2023-05-01T09:37:07.504Z,18.66
2023-05-01T09:38:07.501Z,18.65
2023-05-01T09:39:07.486Z,18.54
2023-05-01T09:40:07.463Z,18.63
2023-05-01T09:41:07.439Z,18.78
2023-05-01T09:42:07.451Z,18.78
2023-05-01T09:43:07.773Z,19.13
2023-05-01T09:44:07.403Z,19.00
2023-05-01T09:45:07.374Z,18.55
2023-05-01T09:46:07.485Z,18.52
2023-05-01T09:47:07.375Z,18.54
2023-05-01T09:48:07.366Z,18.67
2023-05-01T09:49:07.350Z,18.85
2023-05-01T09:50:07.346Z,18.98
2023-05-01T09:51:07.318Z,19.06
2023-05-01T09:52:07.312Z,18.94
2023-05-01T09:53:07.300Z,18.91
2023-05-01T09:54:07.289Z,19.00
2023-05-01T09:55:07.267Z,19.16
2023-05-01T09:56:07.255Z,19.18
2023-05-01T09:57:07.252Z,19.08
2023-05-01T09:58:07.220Z,18.94
2023-05-01T09:59:07.206Z,18.87
2023-05-01T10:00:07.208Z,18.70
2023-05-01T10:01:07.222Z,18.84
2023-05-01T10:02:07.264Z,18.62
2023-05-01T10:03:08.545Z,18.57
2023-05-01T10:04:07.297Z,18.75
2023-05-01T10:05:07.157Z,18.84
2023-05-01T10:06:07.196Z,18.98
2023-05-01T10:07:07.122Z,18.87
2023-05-01T10:08:07.110Z,18.92
2023-05-01T10:09:07.113Z,18.91
2023-05-01T10:10:07.079Z,18.95
2023-05-01T10:11:07.040Z,19.04
2023-05-01T10:12:07.068Z,19.10
2023-05-01T10:13:07.053Z,19.25
2023-05-01T10:14:07.038Z,19.22
2023-05-01T10:15:23.338Z,18.99
2023-05-01T10:16:08.041Z,19.16
2023-05-01T10:17:07.176Z,19.47
2023-05-01T10:18:07.028Z,19.71
2023-05-01T10:19:07.034Z,19.96
2023-05-01T10:20:06.965Z,19.92
2023-05-01T10:21:06.955Z,20.03
2023-05-01T10:22:06.919Z,20.03
2023-05-01T10:23:06.899Z,20.08
2023-05-01T10:24:06.918Z,20.10
2023-05-01T10:25:06.873Z,20.17
2023-05-01T10:26:07.157Z,20.14
2023-05-01T10:27:06.844Z,20.17
2023-05-01T10:28:06.834Z,19.94
2023-05-01T10:29:06.872Z,19.94
2023-05-01T10:30:06.816Z,20.03
2023-05-01T10:31:06.986Z,20.26
2023-05-01T10:32:06.893Z,20.48
2023-05-01T10:33:06.805Z,20.69
2023-05-01T10:34:06.776Z,20.70
2023-05-01T10:35:06.735Z,20.77
2023-05-01T10:36:06.722Z,21.09
2023-05-01T10:37:06.748Z,21.35
2023-05-01T10:38:06.697Z,21.25
2023-05-01T10:39:06.678Z,20.98
2023-05-01T10:40:06.687Z,20.91
2023-05-01T10:41:06.681Z,21.01
2023-05-01T10:42:06.672Z,21.06
2023-05-01T10:43:06.634Z,21.01
2023-05-01T10:44:06.630Z,20.77
2023-05-01T10:45:06.673Z,20.54
2023-05-01T10:46:06.634Z,20.66
2023-05-01T10:47:06.608Z,20.70
2023-05-01T10:48:06.642Z,20.43
2023-05-01T10:49:06.550Z,20.42
2023-05-01T10:50:06.563Z,20.16
2023-05-01T10:51:06.529Z,20.21
2023-05-01T10:52:06.529Z,20.21
2023-05-01T10:53:06.634Z,20.39
2023-05-01T10:54:06.490Z,20.52
2023-05-01T10:55:06.492Z,20.52
2023-05-01T10:56:06.481Z,20.50
2023-05-01T10:57:06.469Z,20.64
2023-05-01T10:58:06.456Z,20.85
2023-05-01T10:59:06.438Z,20.85
2023-05-01T11:00:06.405Z,20.88
2023-05-01T11:01:06.440Z,20.92
2023-05-01T11:02:06.461Z,20.85
2023-05-01T11:03:06.437Z,20.88
2023-05-01T11:04:06.384Z,21.01
2023-05-01T11:05:06.367Z,21.31
2023-05-01T11:06:06.472Z,21.50
2023-05-01T11:07:06.375Z,21.72
2023-05-01T11:08:06.303Z,21.83
2023-05-01T11:09:06.296Z,21.96
2023-05-01T11:10:06.304Z,22.15
2023-05-01T11:11:06.264Z,22.22
2023-05-01T11:12:06.274Z,22.15
2023-05-01T11:13:06.240Z,21.91
2023-05-01T11:14:06.245Z,21.77
2023-05-01T11:15:06.208Z,21.72
2023-05-01T11:16:06.250Z,21.67
2023-05-01T11:17:06.200Z,21.82
2023-05-01T11:18:06.409Z,21.79
2023-05-01T11:19:06.297Z,21.69
2023-05-01T11:20:06.150Z,21.67
2023-05-01T11:21:06.139Z,21.43
2023-05-01T11:22:06.134Z,21.24
2023-05-01T11:23:06.123Z,21.21
2023-05-01T11:24:06.100Z,21.35
2023-05-01T11:25:06.095Z,21.59
2023-05-01T11:26:06.079Z,21.91
2023-05-01T11:27:06.055Z,22.17
2023-05-01T11:28:06.083Z,22.40
2023-05-01T11:29:06.032Z,22.58
2023-05-01T11:30:06.020Z,22.77
2023-05-01T11:31:06.024Z,22.77
2023-05-01T11:32:06.057Z,22.65
2023-05-01T11:33:07.738Z,22.60
2023-05-01T11:34:05.995Z,22.58
2023-05-01T11:35:05.958Z,22.27
2023-05-01T11:36:05.960Z,22.18
2023-05-01T11:37:05.936Z,22.31
2023-05-01T11:38:05.949Z,22.51
2023-05-01T11:39:05.898Z,22.60
2023-05-01T11:40:05.897Z,22.62
2023-05-01T11:41:05.921Z,22.80
2023-05-01T11:42:05.903Z,22.90
2023-05-01T11:43:05.877Z,22.92
2023-05-01T11:44:05.857Z,22.88
2023-05-01T11:45:05.836Z,22.92
2023-05-01T11:46:05.824Z,22.92
2023-05-01T11:47:05.810Z,22.75
2023-05-01T11:48:05.879Z,22.64
2023-05-01T11:49:05.790Z,22.68
2023-05-01T11:50:05.766Z,22.83
2023-05-01T11:51:05.756Z,22.82
2023-05-01T11:52:05.751Z,22.92
2023-05-01T11:53:05.756Z,23.01
2023-05-01T11:54:05.714Z,23.01
2023-05-01T11:55:05.718Z,23.12
2023-05-01T11:56:10.891Z,23.12
2023-05-01T11:57:06.679Z,23.00
2023-05-01T11:58:14.383Z,23.05
2023-05-01T11:59:13.165Z,23.19
2023-05-01T12:00:05.635Z,23.32
2023-05-01T12:01:05.632Z,23.53
2023-05-01T12:02:05.693Z,23.53
2023-05-01T12:03:05.813Z,23.53
2023-05-01T12:04:05.661Z,23.73
2023-05-01T12:05:05.740Z,23.83
2023-05-01T12:06:05.626Z,23.83
2023-05-01T12:07:05.594Z,23.83
2023-05-01T12:08:05.622Z,23.87
2023-05-01T12:09:05.567Z,23.87
2023-05-01T12:10:05.514Z,23.85
2023-05-01T12:11:05.520Z,23.85
2023-05-01T12:12:05.526Z,23.73
2023-05-01T12:13:05.501Z,23.73
2023-05-01T12:14:05.478Z,23.15
2023-05-01T12:15:05.468Z,22.86
2023-05-01T12:16:05.446Z,22.86
2023-05-01T12:17:05.511Z,22.98
2023-05-01T12:18:05.515Z,23.02
2023-05-01T12:19:05.417Z,23.12
2023-05-01T12:20:05.409Z,23.00
2023-05-01T12:21:05.385Z,22.85
2023-05-01T12:22:05.381Z,22.86
2023-05-01T12:23:05.372Z,22.86
2023-05-01T12:24:05.348Z,22.76
2023-05-01T12:25:05.335Z,22.85
2023-05-01T12:26:05.317Z,22.90
2023-05-01T12:27:05.302Z,22.94
2023-05-01T12:28:05.310Z,22.94
2023-05-01T12:29:05.288Z,23.02
2023-05-01T12:30:05.266Z,23.15
2023-05-01T12:31:05.652Z,23.31
2023-05-01T12:32:05.293Z,23.31
2023-05-01T12:33:05.257Z,23.01
2023-05-01T12:34:05.204Z,22.72
2023-05-01T12:35:05.197Z,22.61
2023-05-01T12:36:05.191Z,22.39
2023-05-01T12:37:05.545Z,22.45
2023-05-01T12:38:05.194Z,22.45
2023-05-01T12:39:05.167Z,22.57
2023-05-01T12:40:05.116Z,22.65
2023-05-01T12:41:05.114Z,22.35
2023-05-01T12:42:05.082Z,22.39
2023-05-01T12:43:05.117Z,22.40
2023-05-01T12:44:05.050Z,22.36
2023-05-01T12:45:05.054Z,22.36
2023-05-01T12:46:05.108Z,22.54
2023-05-01T12:47:05.025Z,22.46
2023-05-01T12:48:05.077Z,22.33
2023-05-01T12:49:04.998Z,22.39
2023-05-01T12:50:05.014Z,22.25
2023-05-01T12:51:04.987Z,22.42
2023-05-01T12:52:04.988Z,22.57
2023-05-01T12:53:04.977Z,22.58
2023-05-01T12:54:04.939Z,22.83
2023-05-01T12:55:04.972Z,22.92
2023-05-01T12:56:04.937Z,22.97
2023-05-01T12:57:04.910Z,22.98
2023-05-01T12:58:04.898Z,23.12
2023-05-01T12:59:04.931Z,23.28
2023-05-01T13:00:04.914Z,23.51
2023-05-01T13:01:04.851Z,23.66
2023-05-01T13:02:04.880Z,23.66
2023-05-01T13:03:04.972Z,23.31
2023-05-01T13:04:04.880Z,22.85